createdAt,value
2019-03-06T00:00:33.566Z,6.06
2019-03-06T00:01:35.608Z,6.09
2019-03-06T00:02:33.403Z,6.11
2019-03-06T00:03:33.413Z,6.13
2019-03-06T00:04:33.382Z,6.19
2019-03-06T00:05:33.389Z,6.19
2019-03-06T00:06:33.371Z,6.19
2019-03-06T00:07:33.349Z,6.16
2019-03-06T00:08:33.355Z,6.10
2019-03-06T00:09:33.412Z,6.18
2019-03-06T00:10:33.316Z,6.26
2019-03-06T00:11:33.303Z,6.28
2019-03-06T00:12:40.355Z,6.16
2019-03-06T00:13:33.306Z,6.16
2019-03-06T00:14:33.277Z,6.16
2019-03-06T00:15:33.281Z,6.30
2019-03-06T00:16:33.256Z,6.21
2019-03-06T00:17:33.247Z,6.26
2019-03-06T00:18:33.253Z,6.22
2019-03-06T00:19:33.220Z,6.30
2019-03-06T00:20:33.782Z,6.26
2019-03-06T00:21:33.205Z,6.33
2019-03-06T00:22:33.190Z,6.29
2019-03-06T00:23:33.223Z,6.29
2019-03-06T00:24:33.174Z,6.29
2019-03-06T00:25:33.159Z,6.29
2019-03-06T00:26:33.149Z,6.28
2019-03-06T00:27:33.138Z,6.40
2019-03-06T00:28:33.129Z,6.30
2019-03-06T00:29:33.139Z,6.36
2019-03-06T00:30:33.110Z,6.36
2019-03-06T00:31:33.095Z,6.30
2019-03-06T00:32:33.084Z,6.28
2019-03-06T00:33:33.152Z,6.33
2019-03-06T00:34:33.081Z,6.36
2019-03-06T00:35:33.060Z,6.40
2019-03-06T00:36:33.050Z,6.40
2019-03-06T00:37:33.032Z,6.47
2019-03-06T00:38:33.022Z,6.40
2019-03-06T00:39:33.046Z,6.41
2019-03-06T00:40:33.003Z,6.43
2019-03-06T00:41:32.994Z,6.36
2019-03-06T00:42:33.023Z,6.36
2019-03-06T00:43:32.972Z,6.36
2019-03-06T00:44:32.960Z,6.36
2019-03-06T00:45:32.969Z,6.35
2019-03-06T00:46:32.943Z,6.40
2019-03-06T00:47:32.929Z,6.40
2019-03-06T00:48:32.936Z,6.38
2019-03-06T00:49:32.906Z,6.38
2019-03-06T00:50:32.916Z,6.40
2019-03-06T00:51:32.914Z,6.41
2019-03-06T00:52:32.900Z,6.41
2019-03-06T00:53:32.863Z,6.43
2019-03-06T00:54:32.855Z,6.38
2019-03-06T00:55:32.922Z,6.40
2019-03-06T00:56:32.833Z,6.47
2019-03-06T00:57:32.833Z,6.43
2019-03-06T00:58:32.814Z,6.36
2019-03-06T00:59:32.801Z,6.40
2019-03-06T01:00:32.876Z,6.40
2019-03-06T01:01:32.794Z,6.40
2019-03-06T01:02:32.769Z,6.41
2019-03-06T01:03:32.760Z,6.44
2019-03-06T01:04:33.323Z,6.43
2019-03-06T01:05:32.857Z,6.44
2019-03-06T01:06:32.731Z,6.41
2019-03-06T01:07:32.720Z,6.51
2019-03-06T01:08:32.726Z,6.41
2019-03-06T01:09:32.697Z,6.43
2019-03-06T01:10:32.703Z,6.44
2019-03-06T01:11:32.716Z,6.47
2019-03-06T01:12:32.667Z,6.44
2019-03-06T01:13:32.716Z,6.44
2019-03-06T01:14:32.648Z,6.58
2019-03-06T01:15:32.687Z,6.48
2019-03-06T01:16:32.630Z,6.56
2019-03-06T01:17:32.620Z,6.58
2019-03-06T01:18:32.605Z,6.61
2019-03-06T01:19:32.624Z,6.53
2019-03-06T01:20:32.628Z,6.56
2019-03-06T01:21:32.616Z,6.58
2019-03-06T01:22:32.564Z,6.53
2019-03-06T01:23:33.327Z,6.62
2019-03-06T01:24:32.546Z,6.53
2019-03-06T01:25:32.534Z,6.56
2019-03-06T01:26:32.582Z,6.58
2019-03-06T01:27:32.512Z,6.62
2019-03-06T01:28:32.502Z,6.58
2019-03-06T01:29:32.540Z,6.65
2019-03-06T01:30:32.481Z,6.66
2019-03-06T01:31:32.488Z,6.62
2019-03-06T01:32:32.472Z,6.59
2019-03-06T01:33:32.453Z,6.66
2019-03-06T01:34:32.452Z,6.59
2019-03-06T01:35:32.436Z,6.61
2019-03-06T01:36:32.530Z,6.61
2019-03-06T01:37:32.406Z,6.53
2019-03-06T01:38:32.394Z,6.56
2019-03-06T01:39:32.445Z,6.62
2019-03-06T01:40:32.372Z,6.59
2019-03-06T01:41:32.368Z,6.58
2019-03-06T01:42:32.374Z,6.56
2019-03-06T01:43:32.343Z,6.59
2019-03-06T01:44:32.330Z,6.61
2019-03-06T01:45:32.387Z,6.62
2019-03-06T01:46:32.312Z,6.58
2019-03-06T01:47:32.343Z,6.59
2019-03-06T01:48:32.319Z,6.59
2019-03-06T01:49:32.279Z,6.68
2019-03-06T01:50:32.273Z,6.58
2019-03-06T01:51:32.260Z,6.68
2019-03-06T01:52:32.277Z,6.63
2019-03-06T01:53:32.238Z,6.58
2019-03-06T01:54:32.226Z,6.65
2019-03-06T01:55:32.214Z,6.58
2019-03-06T01:56:32.206Z,6.56
2019-03-06T01:57:32.404Z,6.65
2019-03-06T01:58:32.198Z,6.68
2019-03-06T01:59:32.183Z,6.65
2019-03-06T02:00:32.162Z,6.61
2019-03-06T02:01:32.176Z,6.69
2019-03-06T02:02:32.145Z,6.72
2019-03-06T02:03:32.155Z,6.62
2019-03-06T02:04:32.123Z,6.72
2019-03-06T02:05:32.123Z,6.65
2019-03-06T02:06:32.108Z,6.59
2019-03-06T02:07:32.112Z,6.68
2019-03-06T02:08:32.112Z,6.63
2019-03-06T02:09:32.105Z,6.61
2019-03-06T02:10:32.099Z,6.61
2019-03-06T02:11:32.049Z,6.71
2019-03-06T02:12:32.069Z,6.62
2019-03-06T02:13:32.064Z,6.62
2019-03-06T02:14:32.019Z,6.69
2019-03-06T02:15:32.017Z,6.69
2019-03-06T02:16:32.028Z,6.71
2019-03-06T02:17:31.993Z,6.65
2019-03-06T02:18:31.996Z,6.66
2019-03-06T02:19:31.962Z,6.68
2019-03-06T02:20:31.951Z,6.66
2019-03-06T02:21:31.941Z,6.61
2019-03-06T02:22:31.934Z,6.58
2019-03-06T02:23:31.944Z,6.62
2019-03-06T02:24:31.915Z,6.66
2019-03-06T02:25:31.902Z,6.69
2019-03-06T02:26:31.890Z,6.69
2019-03-06T02:27:31.887Z,6.65
2019-03-06T02:28:31.887Z,6.59
2019-03-06T02:29:31.857Z,6.77
2019-03-06T02:30:31.848Z,6.66
2019-03-06T02:31:31.838Z,6.65
2019-03-06T02:32:31.861Z,6.65
2019-03-06T02:33:31.839Z,6.62
2019-03-06T02:34:31.805Z,6.65
2019-03-06T02:35:31.799Z,6.59
2019-03-06T02:36:31.788Z,6.65
2019-03-06T02:37:31.822Z,6.63
2019-03-06T02:38:31.793Z,6.65
2019-03-06T02:39:31.790Z,6.54
2019-03-06T02:40:31.746Z,6.65
2019-03-06T02:41:31.750Z,6.66
2019-03-06T02:42:31.725Z,6.54
2019-03-06T02:43:31.726Z,6.63
2019-03-06T02:44:31.753Z,6.56
2019-03-06T02:45:31.696Z,6.54
2019-03-06T02:46:31.683Z,6.61
2019-03-06T02:47:31.685Z,6.66
2019-03-06T02:48:31.662Z,6.61
2019-03-06T02:49:31.688Z,6.56
2019-03-06T02:50:31.637Z,6.54
2019-03-06T02:51:31.636Z,6.59
2019-03-06T02:52:31.650Z,6.62
2019-03-06T02:53:31.625Z,6.53
2019-03-06T02:54:31.663Z,6.56
2019-03-06T02:55:31.597Z,6.59
2019-03-06T02:56:31.576Z,6.56
2019-03-06T02:57:31.567Z,6.61
2019-03-06T02:58:31.558Z,6.58
2019-03-06T02:59:31.569Z,6.59
2019-03-06T03:00:31.538Z,6.56
2019-03-06T03:01:31.538Z,6.61
2019-03-06T03:02:31.515Z,6.58
2019-03-06T03:03:31.505Z,6.58
2019-03-06T03:04:31.512Z,6.63
2019-03-06T03:05:31.483Z,6.54
2019-03-06T03:06:31.504Z,6.51
2019-03-06T03:07:31.474Z,6.56
2019-03-06T03:08:31.449Z,6.61
2019-03-06T03:09:31.467Z,6.56
2019-03-06T03:10:31.440Z,6.54
2019-03-06T03:11:31.426Z,6.53
2019-03-06T03:12:31.412Z,6.58
2019-03-06T03:13:31.402Z,6.59
2019-03-06T03:14:31.436Z,6.53
2019-03-06T03:15:31.376Z,6.58
2019-03-06T03:16:31.369Z,6.58
2019-03-06T03:17:31.357Z,6.56
2019-03-06T03:18:31.403Z,6.63
2019-03-06T03:19:31.353Z,6.62
2019-03-06T03:20:31.331Z,6.54
2019-03-06T03:21:31.315Z,6.59
2019-03-06T03:22:31.307Z,6.61
2019-03-06T03:23:31.319Z,6.63
2019-03-06T03:24:31.308Z,6.54
2019-03-06T03:25:31.277Z,6.62
2019-03-06T03:26:31.265Z,6.58
2019-03-06T03:27:31.313Z,6.66
2019-03-06T03:28:31.240Z,6.63
2019-03-06T03:29:31.278Z,6.72
2019-03-06T03:30:31.231Z,6.69
2019-03-06T03:31:31.233Z,6.65
2019-03-06T03:32:31.206Z,6.62
2019-03-06T03:33:31.189Z,6.66
2019-03-06T03:34:31.185Z,6.76
2019-03-06T03:35:31.198Z,6.71
2019-03-06T03:36:31.158Z,6.63
2019-03-06T03:37:31.169Z,6.73
2019-03-06T03:38:31.143Z,6.73
2019-03-06T03:39:31.163Z,6.80
2019-03-06T03:40:31.143Z,6.77
2019-03-06T03:41:31.106Z,6.72
2019-03-06T03:42:31.103Z,6.73
2019-03-06T03:43:31.093Z,6.72
2019-03-06T03:44:31.077Z,6.72
2019-03-06T03:45:31.087Z,6.83
2019-03-06T03:46:31.055Z,6.76
2019-03-06T03:47:31.055Z,6.76
2019-03-06T03:48:31.032Z,6.77
2019-03-06T03:49:31.042Z,6.76
2019-03-06T03:50:31.045Z,6.77
2019-03-06T03:51:30.998Z,6.79
2019-03-06T03:52:30.996Z,6.81
2019-03-06T03:53:30.985Z,6.73
2019-03-06T03:54:30.990Z,6.87
2019-03-06T03:55:31.005Z,6.81
2019-03-06T03:56:30.988Z,6.83
2019-03-06T03:57:30.944Z,6.81
2019-03-06T03:58:30.954Z,6.81
2019-03-06T03:59:30.921Z,6.86
2019-03-06T04:00:30.925Z,6.79
2019-03-06T04:01:30.915Z,6.83
2019-03-06T04:02:30.888Z,6.80
2019-03-06T04:03:30.895Z,6.81
2019-03-06T04:04:30.866Z,6.79
2019-03-06T04:05:30.855Z,6.77
2019-03-06T04:06:30.869Z,6.84
2019-03-06T04:07:30.838Z,6.77
2019-03-06T04:08:30.826Z,6.79
2019-03-06T04:09:30.820Z,6.77
2019-03-06T04:10:30.808Z,6.80
2019-03-06T04:11:31.415Z,6.87
2019-03-06T04:12:30.781Z,6.79
2019-03-06T04:13:30.777Z,6.77
2019-03-06T04:14:30.791Z,6.79
2019-03-06T04:15:30.778Z,6.77
2019-03-06T04:16:30.747Z,6.80
2019-03-06T04:17:30.753Z,6.86
2019-03-06T04:18:30.726Z,6.79
2019-03-06T04:19:30.736Z,6.80
2019-03-06T04:20:30.727Z,6.79
2019-03-06T04:21:30.707Z,6.76
2019-03-06T04:22:30.693Z,6.84
2019-03-06T04:23:30.673Z,6.80
2019-03-06T04:24:30.655Z,6.86
2019-03-06T04:25:30.657Z,6.81
2019-03-06T04:26:30.655Z,6.80
2019-03-06T04:27:30.655Z,6.97
2019-03-06T04:28:30.617Z,6.86
2019-03-06T04:29:30.647Z,6.90
2019-03-06T04:30:30.593Z,6.89
2019-03-06T04:31:30.586Z,6.94
2019-03-06T04:32:30.593Z,7.01
2019-03-06T04:33:30.571Z,6.94
2019-03-06T04:34:30.557Z,6.95
2019-03-06T04:35:30.549Z,6.94
2019-03-06T04:36:30.529Z,6.91
2019-03-06T04:37:30.541Z,6.97
2019-03-06T04:38:30.523Z,6.91
2019-03-06T04:39:30.497Z,6.90
2019-03-06T04:40:30.492Z,6.95
2019-03-06T04:41:30.476Z,6.91
2019-03-06T04:42:30.499Z,6.95
2019-03-06T04:43:30.479Z,6.91
2019-03-06T04:44:30.442Z,6.89
2019-03-06T04:45:30.464Z,6.87
2019-03-06T04:46:30.423Z,6.94
2019-03-06T04:47:30.438Z,6.98
2019-03-06T04:48:30.405Z,6.99
2019-03-06T04:49:30.397Z,6.98
2019-03-06T04:50:30.412Z,6.95
2019-03-06T04:51:30.386Z,7.02
2019-03-06T04:52:30.357Z,7.13
2019-03-06T04:53:30.369Z,7.02
2019-03-06T04:54:30.343Z,6.98
2019-03-06T04:55:30.342Z,6.99
2019-03-06T04:56:30.332Z,6.97
2019-03-06T04:57:30.305Z,7.08
2019-03-06T04:58:30.320Z,6.99
2019-03-06T04:59:30.285Z,7.12
2019-03-06T05:00:30.283Z,7.08
2019-03-06T05:01:30.270Z,7.07
2019-03-06T05:02:30.263Z,7.05
2019-03-06T05:03:30.271Z,6.97
2019-03-06T05:04:30.283Z,6.98
2019-03-06T05:05:30.225Z,7.05
2019-03-06T05:06:30.217Z,6.99
2019-03-06T05:07:30.209Z,7.07
2019-03-06T05:08:30.211Z,7.09
2019-03-06T05:09:30.183Z,7.07
2019-03-06T05:10:30.171Z,7.07
2019-03-06T05:11:30.159Z,7.08
2019-03-06T05:12:30.156Z,7.09
2019-03-06T05:13:30.164Z,7.04
2019-03-06T05:14:30.160Z,7.07
2019-03-06T05:15:30.129Z,6.99
2019-03-06T05:16:30.107Z,7.09
2019-03-06T05:17:30.112Z,7.02
2019-03-06T05:18:30.120Z,6.90
2019-03-06T05:19:30.103Z,6.91
2019-03-06T05:20:30.076Z,6.90
2019-03-06T05:21:30.065Z,6.90
2019-03-06T05:22:30.051Z,6.87
2019-03-06T05:23:30.082Z,6.90
2019-03-06T05:24:30.028Z,6.94
2019-03-06T05:25:30.014Z,6.91
2019-03-06T05:26:30.006Z,6.91
2019-03-06T05:27:29.994Z,6.89
2019-03-06T05:28:29.985Z,6.94
2019-03-06T05:29:29.995Z,6.80
2019-03-06T05:30:29.968Z,6.79
2019-03-06T05:31:29.952Z,6.87
2019-03-06T05:32:29.948Z,6.79
2019-03-06T05:33:29.930Z,6.79
2019-03-06T05:34:29.943Z,6.83
2019-03-06T05:35:29.910Z,6.89
2019-03-06T05:36:29.902Z,6.86
2019-03-06T05:37:29.890Z,6.81
2019-03-06T05:38:29.878Z,6.86
2019-03-06T05:39:29.893Z,6.81
2019-03-06T05:40:29.854Z,6.80
2019-03-06T05:41:29.847Z,6.81
2019-03-06T05:42:29.835Z,6.81
2019-03-06T05:43:29.836Z,6.80
2019-03-06T05:44:29.836Z,6.79
2019-03-06T05:45:29.806Z,6.81
2019-03-06T05:46:29.798Z,6.87
2019-03-06T05:47:29.781Z,6.83
2019-03-06T05:48:29.772Z,6.81
2019-03-06T05:49:29.790Z,6.83
2019-03-06T05:50:29.762Z,6.84
2019-03-06T05:51:29.745Z,6.81
2019-03-06T05:52:29.735Z,6.86
2019-03-06T05:53:29.729Z,6.83
2019-03-06T05:54:29.714Z,6.77
2019-03-06T05:55:29.718Z,6.81
2019-03-06T05:56:29.692Z,6.80
2019-03-06T05:57:29.681Z,6.81
2019-03-06T05:58:29.673Z,6.81
2019-03-06T05:59:29.683Z,6.86
2019-03-06T06:00:29.680Z,6.77
2019-03-06T06:01:29.636Z,6.79
2019-03-06T06:02:29.629Z,6.91
2019-03-06T06:03:29.618Z,6.83
2019-03-06T06:04:29.609Z,6.89
2019-03-06T06:05:29.638Z,6.86
2019-03-06T06:06:29.591Z,6.94
2019-03-06T06:07:29.577Z,6.86
2019-03-06T06:08:29.567Z,6.84
2019-03-06T06:09:29.558Z,6.91
2019-03-06T06:10:29.563Z,6.98
2019-03-06T06:11:29.534Z,6.91
2019-03-06T06:12:37.065Z,6.91
2019-03-06T06:13:31.044Z,6.87
2019-03-06T06:14:29.506Z,6.89
2019-03-06T06:15:29.510Z,6.95
2019-03-06T06:16:29.480Z,6.99
2019-03-06T06:17:29.474Z,6.87
2019-03-06T06:18:29.460Z,6.87
2019-03-06T06:19:29.459Z,6.99
2019-03-06T06:20:29.462Z,6.99
2019-03-06T06:21:29.450Z,6.98
2019-03-06T06:22:29.417Z,6.98
2019-03-06T06:23:29.425Z,6.91
2019-03-06T06:24:29.403Z,6.98
2019-03-06T06:25:29.410Z,6.94
2019-03-06T06:26:29.378Z,6.98
2019-03-06T06:27:29.367Z,6.89
2019-03-06T06:28:29.372Z,6.84
2019-03-06T06:29:29.352Z,6.95
2019-03-06T06:30:29.339Z,6.87
2019-03-06T06:31:29.352Z,6.90
2019-03-06T06:32:29.322Z,6.95
2019-03-06T06:33:29.310Z,6.98
2019-03-06T06:34:29.305Z,6.95
2019-03-06T06:35:29.311Z,6.98
2019-03-06T06:36:29.302Z,7.01
2019-03-06T06:37:29.267Z,7.04
2019-03-06T06:38:29.257Z,7.04
2019-03-06T06:39:29.880Z,6.95
2019-03-06T06:40:29.230Z,6.94
2019-03-06T06:41:29.245Z,7.09
2019-03-06T06:42:29.215Z,7.02
2019-03-06T06:43:29.210Z,7.01
2019-03-06T06:44:29.195Z,6.99
2019-03-06T06:45:29.175Z,7.09
2019-03-06T06:46:29.219Z,6.97
2019-03-06T06:47:29.162Z,7.02
2019-03-06T06:48:29.150Z,6.98
2019-03-06T06:49:29.145Z,7.02
2019-03-06T06:50:29.127Z,6.97
2019-03-06T06:51:29.140Z,6.99
2019-03-06T06:52:29.105Z,6.97
2019-03-06T06:53:29.117Z,6.98
2019-03-06T06:54:29.087Z,7.05
2019-03-06T06:55:29.085Z,7.09
2019-03-06T06:56:29.085Z,6.99
2019-03-06T06:57:29.055Z,7.08
2019-03-06T06:58:31.571Z,7.09
2019-03-06T06:59:29.034Z,7.08
2019-03-06T07:00:29.021Z,7.01
2019-03-06T07:01:29.032Z,7.09
2019-03-06T07:02:29.013Z,7.08
2019-03-06T07:03:28.987Z,7.12
2019-03-06T07:04:28.990Z,7.08
2019-03-06T07:05:28.968Z,7.13
2019-03-06T07:06:29.000Z,7.09
2019-03-06T07:07:28.964Z,7.09
2019-03-06T07:08:28.938Z,7.13
2019-03-06T07:09:28.926Z,7.15
2019-03-06T07:10:28.918Z,7.07
2019-03-06T07:11:28.903Z,7.26
2019-03-06T07:12:28.921Z,7.22
2019-03-06T07:13:28.887Z,7.24
2019-03-06T07:14:28.885Z,7.20
2019-03-06T07:15:28.861Z,7.20
2019-03-06T07:16:28.854Z,7.19
2019-03-06T07:17:28.861Z,7.23
2019-03-06T07:18:28.836Z,7.29
2019-03-06T07:19:28.823Z,7.26
2019-03-06T07:20:28.810Z,7.19
2019-03-06T07:21:28.804Z,7.24
2019-03-06T07:22:28.812Z,7.27
2019-03-06T07:23:28.788Z,7.20
2019-03-06T07:24:28.767Z,7.22
2019-03-06T07:25:28.758Z,7.23
2019-03-06T07:26:28.750Z,7.32
2019-03-06T07:27:28.761Z,7.24
2019-03-06T07:28:28.727Z,7.29
2019-03-06T07:29:28.718Z,7.24
2019-03-06T07:30:28.705Z,7.27
2019-03-06T07:31:28.703Z,7.26
2019-03-06T07:32:28.690Z,7.24
2019-03-06T07:33:28.698Z,7.27
2019-03-06T07:34:28.672Z,7.20
2019-03-06T07:35:28.654Z,7.26
2019-03-06T07:36:28.643Z,7.34
2019-03-06T07:37:29.031Z,7.31
2019-03-06T07:38:28.648Z,7.31
2019-03-06T07:39:28.612Z,7.31
2019-03-06T07:40:28.601Z,7.31
2019-03-06T07:41:28.610Z,7.34
2019-03-06T07:42:28.582Z,7.34
2019-03-06T07:43:28.620Z,7.40
2019-03-06T07:44:30.430Z,7.42
2019-03-06T07:45:28.554Z,7.41
2019-03-06T07:46:28.540Z,7.41
2019-03-06T07:47:28.529Z,7.41
2019-03-06T07:48:28.521Z,7.49
2019-03-06T07:49:28.543Z,7.44
2019-03-06T07:50:28.510Z,7.52
2019-03-06T07:51:28.485Z,7.49
2019-03-06T07:52:28.480Z,7.52
2019-03-06T07:53:28.466Z,7.53
2019-03-06T07:54:29.458Z,7.55
2019-03-06T07:55:28.442Z,7.55
2019-03-06T07:56:28.442Z,7.60
2019-03-06T07:57:28.428Z,7.56
2019-03-06T07:58:28.411Z,7.59
2019-03-06T07:59:28.472Z,7.55
2019-03-06T08:00:28.404Z,7.58
2019-03-06T08:01:28.382Z,7.66
2019-03-06T08:02:28.367Z,7.59
2019-03-06T08:03:28.361Z,7.63
2019-03-06T08:04:28.370Z,7.63
2019-03-06T08:05:28.342Z,7.67
2019-03-06T08:06:28.332Z,7.67
2019-03-06T08:07:28.327Z,7.69
2019-03-06T08:08:28.306Z,7.69
2019-03-06T08:09:28.312Z,7.71
2019-03-06T08:10:28.296Z,7.72
2019-03-06T08:11:28.276Z,7.72
2019-03-06T08:12:28.268Z,7.74
2019-03-06T08:13:28.253Z,7.69
2019-03-06T08:14:28.269Z,7.77
2019-03-06T08:15:28.269Z,7.87
2019-03-06T08:16:28.226Z,7.85
2019-03-06T08:17:28.222Z,7.78
2019-03-06T08:18:28.220Z,7.90
2019-03-06T08:19:28.191Z,7.85
2019-03-06T08:20:28.206Z,7.94
2019-03-06T08:21:28.180Z,7.96
2019-03-06T08:22:28.165Z,7.92
2019-03-06T08:23:28.154Z,7.93
2019-03-06T08:24:28.143Z,7.92
2019-03-06T08:25:28.150Z,8.02
2019-03-06T08:26:28.120Z,8.00
2019-03-06T08:27:28.109Z,8.11
2019-03-06T08:28:28.100Z,8.12
2019-03-06T08:29:28.095Z,8.15
2019-03-06T08:30:28.104Z,8.15
2019-03-06T08:31:28.069Z,8.14
2019-03-06T08:32:28.058Z,8.17
2019-03-06T08:33:28.050Z,8.18
2019-03-06T08:34:28.037Z,8.25
2019-03-06T08:35:28.046Z,8.30
2019-03-06T08:36:28.033Z,8.33
2019-03-06T08:37:28.004Z,8.47
2019-03-06T08:38:28.000Z,8.48
2019-03-06T08:39:27.983Z,8.55
2019-03-06T08:40:27.972Z,8.58
2019-03-06T08:41:27.984Z,8.65
2019-03-06T08:42:27.955Z,8.75
2019-03-06T08:43:27.946Z,8.62
2019-03-06T08:44:27.930Z,8.66
2019-03-06T08:45:27.926Z,8.75
2019-03-06T08:46:27.934Z,8.73
2019-03-06T08:47:27.923Z,8.68
2019-03-06T08:48:27.888Z,8.68
2019-03-06T08:49:27.881Z,8.65
2019-03-06T08:50:27.869Z,8.83
2019-03-06T08:51:27.882Z,8.87
2019-03-06T08:52:27.847Z,8.86
2019-03-06T08:53:27.839Z,8.97
2019-03-06T08:54:27.838Z,8.99
2019-03-06T08:55:27.813Z,8.97
2019-03-06T08:56:27.847Z,9.04
2019-03-06T08:57:27.798Z,9.06
2019-03-06T08:58:27.787Z,9.06
2019-03-06T08:59:27.777Z,9.01
2019-03-06T09:00:27.765Z,9.01
2019-03-06T09:01:27.776Z,9.16
2019-03-06T09:02:27.742Z,9.06
2019-03-06T09:03:27.776Z,9.15
2019-03-06T09:04:27.774Z,9.20
2019-03-06T09:05:27.736Z,9.18
2019-03-06T09:06:27.713Z,9.18
2019-03-06T09:07:27.706Z,9.18
2019-03-06T09:08:27.682Z,9.30
2019-03-06T09:09:27.668Z,9.31
2019-03-06T09:10:27.659Z,9.28
2019-03-06T09:11:27.650Z,9.34
2019-03-06T09:12:27.656Z,9.43
2019-03-06T09:13:27.629Z,9.40
2019-03-06T09:14:27.616Z,9.60
2019-03-06T09:15:27.604Z,9.58
2019-03-06T09:16:27.605Z,9.60
2019-03-06T09:17:27.606Z,9.64
2019-03-06T09:18:27.575Z,9.73
2019-03-06T09:19:27.587Z,9.83
2019-03-06T09:20:35.405Z,9.94
2019-03-06T09:21:28.544Z,9.88
2019-03-06T09:22:27.557Z,9.94
2019-03-06T09:23:27.524Z,9.89
2019-03-06T09:24:27.512Z,9.91
2019-03-06T09:25:27.500Z,9.81
2019-03-06T09:26:27.492Z,9.96
2019-03-06T09:27:27.502Z,9.91
2019-03-06T09:28:27.465Z,9.93
2019-03-06T09:29:27.459Z,9.93
2019-03-06T09:30:27.447Z,9.88
2019-03-06T09:31:27.439Z,9.89
2019-03-06T09:32:27.448Z,9.96
2019-03-06T09:33:27.425Z,9.85
2019-03-06T09:34:28.279Z,9.88
2019-03-06T09:35:27.402Z,9.96
2019-03-06T09:36:27.381Z,9.89
2019-03-06T09:37:27.411Z,9.97
2019-03-06T09:38:27.364Z,9.97
2019-03-06T09:39:27.351Z,10.00
2019-03-06T09:40:27.340Z,10.00
2019-03-06T09:41:27.333Z,10.06
2019-03-06T09:42:27.325Z,10.15
2019-03-06T09:43:27.330Z,10.12
2019-03-06T09:44:27.303Z,10.12
2019-03-06T09:45:27.286Z,10.10
2019-03-06T09:46:27.279Z,10.09
2019-03-06T09:47:27.266Z,10.07
2019-03-06T09:48:27.293Z,10.15
2019-03-06T09:49:27.248Z,10.24
2019-03-06T09:50:27.244Z,10.32
2019-03-06T09:51:27.221Z,10.39
2019-03-06T09:52:27.208Z,10.40
2019-03-06T09:53:27.245Z,10.52
2019-03-06T09:54:27.194Z,10.39
2019-03-06T09:55:27.192Z,10.36
2019-03-06T09:56:27.167Z,10.42
2019-03-06T09:57:27.157Z,10.51
2019-03-06T09:58:27.215Z,10.39
2019-03-06T09:59:27.137Z,10.40
2019-03-06T10:00:27.131Z,10.44
2019-03-06T10:01:27.120Z,10.40
2019-03-06T10:02:27.105Z,10.36
2019-03-06T10:03:27.489Z,10.40
2019-03-06T10:04:27.089Z,10.36
2019-03-06T10:05:27.074Z,10.37
2019-03-06T10:06:27.070Z,10.43
2019-03-06T10:07:27.056Z,10.46
2019-03-06T10:08:27.061Z,10.47
2019-03-06T10:09:27.039Z,10.51
2019-03-06T10:10:27.018Z,10.58
2019-03-06T10:11:27.012Z,10.52
2019-03-06T10:12:27.003Z,10.52
2019-03-06T10:13:27.038Z,10.60
2019-03-06T10:14:26.978Z,10.59
2019-03-06T10:15:26.973Z,10.56
2019-03-06T10:16:26.957Z,10.59
2019-03-06T10:17:26.951Z,10.63
2019-03-06T10:18:26.982Z,10.66
2019-03-06T10:19:26.952Z,10.63
2019-03-06T10:20:26.918Z,10.73
2019-03-06T10:21:26.907Z,10.62
2019-03-06T10:22:26.901Z,10.76
2019-03-06T10:23:26.886Z,10.78
2019-03-06T10:24:26.894Z,10.88
2019-03-06T10:25:30.333Z,10.95
2019-03-06T10:26:28.912Z,10.95
2019-03-06T10:27:26.839Z,10.98
2019-03-06T10:28:27.975Z,10.98
2019-03-06T10:29:26.941Z,10.99
2019-03-06T10:30:26.821Z,10.96
2019-03-06T10:31:26.799Z,11.01
2019-03-06T10:32:26.794Z,10.96
2019-03-06T10:33:26.777Z,10.89
2019-03-06T10:34:26.793Z,10.88
2019-03-06T10:35:26.763Z,10.95
2019-03-06T10:36:26.745Z,10.83
2019-03-06T10:37:26.742Z,10.94
2019-03-06T10:38:26.727Z,10.84
2019-03-06T10:39:26.735Z,10.94
2019-03-06T10:40:26.704Z,10.96
2019-03-06T10:41:26.693Z,10.94
2019-03-06T10:42:26.694Z,10.92
2019-03-06T10:43:26.673Z,10.88
2019-03-06T10:44:29.941Z,10.80
2019-03-06T10:45:26.667Z,10.95
2019-03-06T10:46:26.665Z,10.80
2019-03-06T10:47:26.639Z,10.86
2019-03-06T10:48:26.614Z,10.84
2019-03-06T10:49:26.612Z,10.84
2019-03-06T10:50:28.006Z,10.78
2019-03-06T10:51:27.587Z,10.73
2019-03-06T10:52:26.577Z,10.70
2019-03-06T10:53:26.568Z,10.76
2019-03-06T10:54:26.571Z,10.73
2019-03-06T10:55:26.585Z,10.74
2019-03-06T10:56:26.536Z,10.76
2019-03-06T10:57:26.523Z,10.83
2019-03-06T10:58:26.511Z,10.74
2019-03-06T10:59:26.507Z,10.76
2019-03-06T11:00:26.509Z,10.80
2019-03-06T11:01:26.484Z,10.81
2019-03-06T11:02:26.471Z,10.78
2019-03-06T11:03:26.476Z,10.84
2019-03-06T11:04:26.447Z,10.95
2019-03-06T11:05:26.460Z,10.88
2019-03-06T11:06:26.432Z,10.83
2019-03-06T11:07:26.415Z,10.83
2019-03-06T11:08:26.406Z,10.81
2019-03-06T11:09:26.399Z,10.83
2019-03-06T11:10:26.829Z,10.83
2019-03-06T11:11:26.400Z,10.83
2019-03-06T11:12:26.364Z,10.86
2019-03-06T11:13:26.357Z,10.84
2019-03-06T11:14:26.347Z,10.91
2019-03-06T11:15:26.336Z,10.80
2019-03-06T11:16:26.338Z,10.95
2019-03-06T11:17:26.315Z,10.95
2019-03-06T11:18:26.312Z,10.94
2019-03-06T11:19:26.290Z,10.95
2019-03-06T11:20:26.297Z,10.95
2019-03-06T11:21:26.336Z,10.96
2019-03-06T11:22:26.263Z,10.94
2019-03-06T11:23:26.252Z,10.91
2019-03-06T11:24:26.234Z,10.95
2019-03-06T11:25:26.291Z,11.01
2019-03-06T11:26:26.247Z,10.98
2019-03-06T11:27:26.222Z,11.10
2019-03-06T11:28:26.189Z,11.07
2019-03-06T11:29:26.210Z,11.09
2019-03-06T11:30:26.201Z,11.19
2019-03-06T11:31:26.160Z,11.07
2019-03-06T11:32:26.158Z,11.09
2019-03-06T11:33:26.137Z,11.11
2019-03-06T11:34:26.135Z,11.16
2019-03-06T11:35:26.121Z,11.17
2019-03-06T11:36:26.129Z,11.13
2019-03-06T11:37:26.097Z,11.16
2019-03-06T11:38:26.089Z,11.07
2019-03-06T11:39:26.075Z,11.13
2019-03-06T11:40:26.100Z,11.09
2019-03-06T11:41:26.088Z,11.10
2019-03-06T11:42:26.047Z,11.17
2019-03-06T11:43:26.034Z,11.20
2019-03-06T11:44:26.023Z,11.16
2019-03-06T11:45:26.022Z,11.16
2019-03-06T11:46:26.023Z,11.24
2019-03-06T11:47:25.991Z,11.17
2019-03-06T11:48:25.983Z,11.20
2019-03-06T11:49:25.968Z,11.28
2019-03-06T11:50:25.978Z,11.32
2019-03-06T11:51:25.968Z,11.25
2019-03-06T11:52:25.941Z,11.21
2019-03-06T11:53:25.934Z,11.31
2019-03-06T11:54:25.919Z,11.25
2019-03-06T11:55:25.906Z,11.27
2019-03-06T11:56:25.937Z,11.28
2019-03-06T11:57:25.897Z,11.28
2019-03-06T11:58:25.873Z,11.25
2019-03-06T11:59:25.864Z,11.27
2019-03-06T12:00:25.852Z,11.14
2019-03-06T12:01:25.863Z,11.17
2019-03-06T12:02:25.831Z,11.21
2019-03-06T12:03:25.821Z,11.20
2019-03-06T12:04:25.809Z,11.19
2019-03-06T12:05:25.803Z,11.24
2019-03-06T12:06:25.827Z,11.27
2019-03-06T12:07:25.777Z,11.19
2019-03-06T12:08:25.768Z,11.24
2019-03-06T12:09:25.784Z,11.20
2019-03-06T12:10:25.747Z,11.17
2019-03-06T12:11:25.764Z,11.27
2019-03-06T12:12:25.737Z,11.24
2019-03-06T12:13:25.716Z,11.28
2019-03-06T12:14:25.709Z,11.36
2019-03-06T12:15:25.726Z,11.41
2019-03-06T12:16:25.722Z,11.49
2019-03-06T12:17:25.671Z,11.56
2019-03-06T12:18:25.668Z,11.56
2019-03-06T12:19:25.693Z,11.47
2019-03-06T12:20:25.647Z,11.46
2019-03-06T12:21:25.671Z,11.61
2019-03-06T12:22:25.631Z,11.53
2019-03-06T12:23:25.608Z,11.50
2019-03-06T12:24:25.599Z,11.61
2019-03-06T12:25:25.602Z,11.61
2019-03-06T12:26:25.604Z,11.62
2019-03-06T12:27:25.569Z,11.62
2019-03-06T12:28:25.570Z,11.53
2019-03-06T12:29:25.556Z,11.52
2019-03-06T12:30:25.538Z,11.64
2019-03-06T12:31:25.548Z,11.62
2019-03-06T12:32:27.190Z,11.71
2019-03-06T12:33:25.580Z,11.71
2019-03-06T12:34:25.523Z,11.65
2019-03-06T12:35:25.506Z,11.71
2019-03-06T12:36:25.469Z,11.68
2019-03-06T12:37:25.480Z,11.72
2019-03-06T12:38:25.477Z,11.80
2019-03-06T12:39:25.456Z,11.71
2019-03-06T12:40:25.447Z,11.71
2019-03-06T12:41:25.425Z,11.74
2019-03-06T12:42:25.426Z,11.72
2019-03-06T12:43:25.397Z,11.77
2019-03-06T12:44:25.382Z,11.83
2019-03-06T12:45:27.298Z,11.83
2019-03-06T12:46:25.364Z,11.71
2019-03-06T12:47:25.370Z,11.83
2019-03-06T12:48:25.341Z,11.74
2019-03-06T12:49:25.342Z,11.75
2019-03-06T12:50:25.331Z,11.80
2019-03-06T12:51:25.310Z,11.83
2019-03-06T12:52:25.318Z,11.72
2019-03-06T12:53:25.286Z,11.77
2019-03-06T12:54:25.283Z,11.83
2019-03-06T12:55:25.275Z,11.67
2019-03-06T12:56:25.262Z,11.77
2019-03-06T12:57:25.295Z,11.67
2019-03-06T12:58:25.234Z,11.82
2019-03-06T12:59:25.224Z,11.75
2019-03-06T13:00:25.217Z,11.89
2019-03-06T13:01:25.207Z,11.80
2019-03-06T13:02:25.192Z,11.68
2019-03-06T13:03:25.214Z,11.64
2019-03-06T13:04:25.176Z,11.72
2019-03-06T13:05:25.164Z,11.74
2019-03-06T13:06:25.368Z,11.70
2019-03-06T13:07:25.145Z,11.82
2019-03-06T13:08:25.151Z,11.70
2019-03-06T13:09:25.125Z,11.65
2019-03-06T13:10:25.109Z,11.71
2019-03-06T13:11:25.098Z,11.72